Time;durP1;ratioP1;P1;durP2;ratioP2;P2;SDS_P1;SDS_P2;PMS_P1;PMS_P2;Temp;Humidity;BMP_temperature;BMP_pressure;BME280_temperature;BME280_humidity;BME280_pressure;Samples;Min_cycle;Max_cycle;Signal;HPM_P1;HPM_P2
2022/02/23 00:00:56;;;;;;;0.30;0.30;;;6.50;99.90;;;;;;5033283;28;20446;-81
2022/02/23 00:03:23;;;;;;;0.40;0.40;;;6.50;99.90;;;;;;5033629;28;20451;-81
2022/02/23 00:05:49;;;;;;;0.30;0.20;;;6.50;99.90;;;;;;5033576;28;20443;-81
2022/02/23 00:08:16;;;;;;;0.30;0.20;;;6.50;99.90;;;;;;5033324;28;20982;-81
2022/02/23 00:10:44;;;;;;;0.30;0.30;;;6.50;99.90;;;;;;5033273;28;20435;-81
2022/02/23 00:13:11;;;;;;;0.30;0.20;;;6.50;99.90;;;;;;5033473;28;20447;-81
2022/02/23 00:15:38;;;;;;;0.30;0.20;;;6.50;99.90;;;;;;5033442;28;20446;-81
2022/02/23 00:18:10;;;;;;;0.30;0.20;;;6.60;99.90;;;;;;5033397;28;20470;-81
2022/02/23 00:20:36;;;;;;;0.30;0.20;;;6.60;99.90;;;;;;5033495;28;20435;-81
2022/02/23 00:23:03;;;;;;;0.30;0.27;;;6.60;99.90;;;;;;5033061;28;20479;-81
2022/02/23 00:25:30;;;;;;;0.30;0.30;;;6.50;99.90;;;;;;5033358;28;20454;-81
2022/02/23 00:27:58;;;;;;;0.30;0.20;;;6.40;99.90;;;;;;5032954;28;20994;-81
2022/02/23 00:30:25;;;;;;;6.70;2.40;;;6.40;99.90;;;;;;5032821;28;20485;-81
2022/02/23 00:32:51;;;;;;;0.30;0.20;;;6.30;99.90;;;;;;5033008;28;20443;-81
2022/02/23 00:35:18;;;;;;;0.30;0.20;;;6.30;99.90;;;;;;5033550;28;20442;-81
2022/02/23 00:37:45;;;;;;;0.30;0.20;;;6.20;99.90;;;;;;5032945;28;20451;-82
2022/02/23 00:40:13;;;;;;;0.80;0.77;;;6.20;99.90;;;;;;5033225;28;20447;-81
2022/02/23 00:42:39;;;;;;;0.30;0.30;;;6.20;99.90;;;;;;5034802;28;20482;-81
2022/02/23 00:45:08;;;;;;;0.30;0.20;;;6.10;99.90;;;;;;5037018;28;20779;-81
2022/02/23 00:47:37;;;;;;;0.30;0.20;;;6.10;99.90;;;;;;5037219;28;20474;-81
2022/02/23 00:50:04;;;;;;;0.30;0.20;;;6.10;99.90;;;;;;5036942;28;20439;-81
2022/02/23 00:52:31;;;;;;;0.30;0.20;;;6.10;99.90;;;;;;5037083;28;20435;-81
2022/02/23 00:54:57;;;;;;;0.30;0.20;;;6.10;99.90;;;;;;5037136;28;20454;-81
2022/02/23 00:57:24;;;;;;;0.30;0.20;;;6.10;99.90;;;;;;5037020;28;20466;-81
2022/02/23 00:59:51;;;;;;;0.33;0.30;;;6.10;99.90;;;;;;5036981;28;20469;-81
2022/02/23 01:02:19;;;;;;;0.30;0.20;;;6.10;99.90;;;;;;5036877;28;20478;-81
2022/02/23 01:04:46;;;;;;;0.30;0.20;;;6.00;99.90;;;;;;5036983;28;20495;-81
2022/02/23 01:07:14;;;;;;;0.30;0.20;;;6.10;99.90;;;;;;5036491;28;20470;-81
2022/02/23 01:09:41;;;;;;;0.30;0.20;;;6.10;99.90;;;;;;5036552;28;20494;-81
2022/02/23 01:12:08;;;;;;;0.40;0.40;;;6.10;99.90;;;;;;5036537;28;20450;-81
2022/02/23 01:14:35;;;;;;;0.30;0.30;;;6.10;99.90;;;;;;5036626;28;20457;-81
2022/02/23 01:17:02;;;;;;;0.30;0.20;;;6.10;99.90;;;;;;5036617;28;20442;-81
2022/02/23 01:19:30;;;;;;;0.40;0.40;;;6.10;99.90;;;;;;5036691;28;20447;-81
2022/02/23 01:21:57;;;;;;;0.30;0.20;;;6.10;99.90;;;;;;5036548;28;20482;-81
2022/02/23 01:24:24;;;;;;;0.30;0.20;;;6.10;99.90;;;;;;5036260;28;20976;-81
2022/02/23 01:26:51;;;;;;;0.30;0.20;;;6.10;99.90;;;;;;5036167;28;20443;-82
2022/02/23 01:29:17;;;;;;;0.40;0.40;;;6.10;99.90;;;;;;5036219;28;20497;-81
2022/02/23 01:31:44;;;;;;;0.30;0.20;;;6.10;99.90;;;;;;5036433;28;20438;-82
2022/02/23 01:34:11;;;;;;;0.30;0.27;;;6.10;99.90;;;;;;5036434;28;20456;-81
2022/02/23 01:36:39;;;;;;;0.60;0.40;;;6.10;99.90;;;;;;5036043;28;20461;-82
2022/02/23 01:39:06;;;;;;;0.30;0.20;;;6.00;99.90;;;;;;5036272;28;20469;-82
2022/02/23 01:41:32;;;;;;;0.30;0.30;;;6.00;99.90;;;;;;5036222;28;20450;-83
2022/02/23 01:43:59;;;;;;;0.30;0.20;;;6.10;99.90;;;;;;5036006;28;20441;-83
2022/02/23 01:46:27;;;;;;;0.30;0.20;;;6.10;99.90;;;;;;5036203;28;20446;-83
2022/02/23 01:48:54;;;;;;;0.30;0.20;;;6.10;99.90;;;;;;5036088;28;20529;-82
2022/02/23 01:51:20;;;;;;;0.30;0.20;;;6.10;99.90;;;;;;5035892;28;20446;-87
2022/02/23 01:53:49;;;;;;;0.30;0.30;;;6.10;99.90;;;;;;5035525;28;20446;-87
2022/02/23 01:56:15;;;;;;;0.30;0.30;;;6.20;99.90;;;;;;5036162;28;20459;-83
2022/02/23 01:58:42;;;;;;;0.30;0.30;;;6.20;99.90;;;;;;5035631;28;20451;-83
2022/02/23 02:01:10;;;;;;;0.30;0.20;;;6.20;99.90;;;;;;5035564;28;20459;-83
2022/02/23 02:03:36;;;;;;;0.30;0.20;;;6.20;99.90;;;;;;5035734;28;20552;-87
2022/02/23 02:06:03;;;;;;;0.30;0.20;;;6.20;99.90;;;;;;5035931;28;20947;-87
2022/02/23 02:08:30;;;;;;;0.30;0.30;;;6.20;99.90;;;;;;5035873;28;20478;-87
2022/02/23 02:10:58;;;;;;;0.30;0.20;;;6.20;99.90;;;;;;5035756;28;20507;-83
2022/02/23 02:13:25;;;;;;;0.30;0.20;;;6.20;99.90;;;;;;5035271;28;21021;-83
2022/02/23 02:15:51;;;;;;;0.30;0.20;;;6.20;99.90;;;;;;5036148;28;20459;-83
2022/02/23 02:18:18;;;;;;;0.30;0.20;;;6.20;99.90;;;;;;5035404;28;20994;-83
2022/02/23 02:20:45;;;;;;;0.30;0.30;;;6.30;99.90;;;;;;5035611;28;20442;-83
2022/02/23 02:23:15;;;;;;;0.30;0.30;;;6.40;99.90;;;;;;5035445;28;20486;-83
2022/02/23 02:25:42;;;;;;;0.30;0.20;;;6.20;99.90;;;;;;5035613;28;20450;-87
2022/02/23 02:28:09;;;;;;;0.30;0.20;;;5.90;99.90;;;;;;5035383;28;20986;-87
2022/02/23 02:30:35;;;;;;;0.30;0.20;;;5.60;99.90;;;;;;5035531;28;20993;-88
2022/02/23 02:33:02;;;;;;;0.30;0.20;;;5.40;99.90;;;;;;5036040;28;20439;-88
2022/02/23 02:35:31;;;;;;;0.30;0.30;;;5.20;99.90;;;;;;5035976;28;20458;-88
2022/02/23 02:37:58;;;;;;;0.30;0.20;;;5.10;99.90;;;;;;5036044;28;20478;-88
2022/02/23 02:40:26;;;;;;;0.30;0.20;;;5.00;99.90;;;;;;5035898;28;20421;-88
2022/02/23 02:42:53;;;;;;;0.30;0.30;;;4.90;99.90;;;;;;5035953;28;20488;-89
2022/02/23 02:45:21;;;;;;;0.30;0.30;;;4.90;99.90;;;;;;5036251;28;20451;-89
2022/02/23 02:47:48;;;;;;;0.30;0.30;;;4.80;99.90;;;;;;5036600;28;20471;-89
2022/02/23 02:50:15;;;;;;;0.30;0.20;;;4.80;99.90;;;;;;5035933;28;20786;-89
2022/02/23 02:52:41;;;;;;;0.30;0.30;;;4.70;99.90;;;;;;5036063;28;20450;-89
2022/02/23 02:55:09;;;;;;;0.30;0.20;;;4.70;99.90;;;;;;5035736;28;20438;-90
2022/02/23 02:57:39;;;;;;;0.30;0.20;;;4.70;99.90;;;;;;5035865;28;20978;-89
2022/02/23 03:00:07;;;;;;;0.30;0.20;;;4.70;99.90;;;;;;5036070;28;20553;-90
2022/02/23 03:02:34;;;;;;;0.30;0.30;;;4.60;99.90;;;;;;5036148;28;21024;-89
2022/02/23 03:05:01;;;;;;;0.30;0.30;;;4.60;99.90;;;;;;5035524;28;20439;-89
2022/02/23 03:07:28;;;;;;;0.30;0.30;;;4.70;99.90;;;;;;5035521;28;20455;-89
2022/02/23 03:09:55;;;;;;;0.30;0.20;;;4.70;99.90;;;;;;5036029;28;20446;-89
2022/02/23 03:12:21;;;;;;;0.30;0.20;;;4.70;99.90;;;;;;5035907;28;20435;-89
2022/02/23 03:14:50;;;;;;;0.30;0.20;;;4.60;99.90;;;;;;5035469;28;20961;-89
2022/02/23 03:17:16;;;;;;;0.30;0.20;;;4.60;99.90;;;;;;5035871;28;20457;-89
2022/02/23 03:19:43;;;;;;;0.30;0.30;;;4.60;99.90;;;;;;5036512;28;20439;-89
2022/02/23 03:22:10;;;;;;;0.30;0.20;;;4.60;99.90;;;;;;5036329;28;20927;-89
2022/02/23 03:24:36;;;;;;;0.30;0.30;;;4.50;99.90;;;;;;5036126;28;20441;-89
2022/02/23 03:27:04;;;;;;;0.30;0.20;;;4.50;99.90;;;;;;5035848;28;20458;-89
2022/02/23 03:29:30;;;;;;;0.30;0.30;;;4.60;99.90;;;;;;5035325;28;20486;-89
2022/02/23 03:31:58;;;;;;;0.30;0.30;;;4.50;99.90;;;;;;5035350;28;20431;-88
2022/02/23 03:34:25;;;;;;;0.30;0.30;;;4.50;99.90;;;;;;5035232;28;20435;-88
2022/02/23 03:36:52;;;;;;;0.30;0.30;;;4.50;99.90;;;;;;5035029;28;20442;-88
2022/02/23 03:39:19;;;;;;;0.30;0.20;;;4.50;99.90;;;;;;5035043;28;20452;-88
2022/02/23 03:41:45;;;;;;;0.30;0.30;;;4.50;99.90;;;;;;5035101;28;20446;-88
2022/02/23 03:44:12;;;;;;;0.30;0.20;;;4.40;99.90;;;;;;5034683;28;20489;-88
2022/02/23 03:46:39;;;;;;;0.30;0.20;;;4.30;99.90;;;;;;5034901;28;20433;-88
2022/02/23 03:49:07;;;;;;;0.30;0.30;;;4.20;99.90;;;;;;5034902;28;20463;-88
2022/02/23 03:51:34;;;;;;;0.30;0.20;;;4.10;99.90;;;;;;5034682;28;20954;-88
2022/02/23 03:54:01;;;;;;;0.30;0.20;;;4.00;99.90;;;;;;5034427;28;20531;-88
2022/02/23 03:56:39;;;;;;;0.30;0.30;;;3.90;99.90;;;;;;5034907;28;20442;-87
2022/02/23 03:59:08;;;;;;;0.30;0.20;;;3.90;99.90;;;;;;5034833;28;20863;-88
2022/02/23 04:01:36;;;;;;;0.30;0.30;;;3.80;99.90;;;;;;5034585;28;20522;-88
2022/02/23 04:04:04;;;;;;;0.30;0.20;;;3.70;99.90;;;;;;5034518;28;20478;-88
2022/02/23 04:06:33;;;;;;;0.30;0.20;;;3.70;99.90;;;;;;5034513;28;20455;-88
2022/02/23 04:09:01;;;;;;;0.30;0.20;;;3.60;99.90;;;;;;5034372;28;20978;-88
2022/02/23 04:11:27;;;;;;;0.30;0.20;;;3.60;99.90;;;;;;5034356;28;20453;-88
2022/02/23 04:13:54;;;;;;;0.30;0.30;;;3.60;99.90;;;;;;5034466;28;20883;-88
2022/02/23 04:16:21;;;;;;;0.30;0.30;;;3.50;99.90;;;;;;5034236;28;20446;-88
2022/02/23 04:18:48;;;;;;;0.30;0.30;;;3.50;99.90;;;;;;5034018;28;20471;-88
2022/02/23 04:21:15;;;;;;;0.30;0.30;;;3.50;99.90;;;;;;5034228;28;20443;-88
2022/02/23 04:23:44;;;;;;;0.30;0.20;;;3.60;99.90;;;;;;5034445;28;20489;-88
2022/02/23 04:26:12;;;;;;;0.30;0.30;;;3.60;99.90;;;;;;5034420;28;20450;-88
2022/02/23 04:28:39;;;;;;;0.30;0.30;;;3.60;99.90;;;;;;5034247;28;20474;-87
2022/02/23 04:31:06;;;;;;;0.30;0.30;;;3.70;99.90;;;;;;5034462;28;20435;-88
2022/02/23 04:33:33;;;;;;;0.30;0.30;;;3.70;99.90;;;;;;5034177;28;20435;-88
2022/02/23 04:35:59;;;;;;;0.30;0.27;;;3.80;99.90;;;;;;5034253;28;20451;-88
2022/02/23 04:38:26;;;;;;;0.30;0.20;;;3.90;99.90;;;;;;5034166;28;20467;-87
2022/02/23 04:40:54;;;;;;;0.30;0.30;;;3.90;99.90;;;;;;5034486;28;20443;-88
2022/02/23 04:43:21;;;;;;;0.30;0.20;;;3.90;99.90;;;;;;5033865;28;20474;-88
2022/02/23 04:45:50;;;;;;;0.30;0.30;;;3.90;99.90;;;;;;5033797;28;20976;-88
2022/02/23 04:48:17;;;;;;;0.30;0.20;;;4.00;99.90;;;;;;5034048;28;20530;-88
2022/02/23 04:50:44;;;;;;;0.30;0.20;;;4.00;99.90;;;;;;5034778;28;20621;-87
2022/02/23 04:53:11;;;;;;;0.30;0.20;;;4.00;99.90;;;;;;5034926;28;20447;-88
2022/02/23 04:55:37;;;;;;;0.30;0.20;;;4.10;99.90;;;;;;5034589;28;20827;-88
2022/02/23 04:58:07;;;;;;;0.30;0.20;;;4.00;99.90;;;;;;5034305;28;20477;-88
2022/02/23 05:00:36;;;;;;;0.30;0.20;;;4.00;99.90;;;;;;5033892;28;20458;-87
2022/02/23 05:03:03;;;;;;;0.30;0.20;;;4.10;99.90;;;;;;5034731;28;20497;-87
2022/02/23 05:05:30;;;;;;;0.30;0.27;;;4.10;99.90;;;;;;5034214;28;20446;-88
2022/02/23 05:07:56;;;;;;;0.30;0.20;;;4.10;99.90;;;;;;5033961;28;20478;-87
2022/02/23 05:10:23;;;;;;;0.30;0.20;;;4.00;99.90;;;;;;5033718;28;20446;-87
2022/02/23 05:12:50;;;;;;;0.30;0.20;;;4.00;99.90;;;;;;5033726;28;20451;-87
2022/02/23 05:15:18;;;;;;;0.30;0.20;;;3.90;99.90;;;;;;5033786;28;20470;-87
2022/02/23 05:17:45;;;;;;;0.30;0.20;;;3.90;99.90;;;;;;5033794;28;20493;-87
2022/02/23 05:20:12;;;;;;;0.30;0.20;;;3.80;99.90;;;;;;5033817;28;20466;-88
2022/02/23 05:22:39;;;;;;;0.30;0.20;;;3.80;99.90;;;;;;5033739;28;20969;-87
2022/02/23 05:25:07;;;;;;;0.30;0.30;;;3.80;99.90;;;;;;5034699;28;20935;-87
2022/02/23 05:27:34;;;;;;;0.30;0.20;;;3.70;99.90;;;;;;5033459;28;20466;-87
2022/02/23 05:30:00;;;;;;;0.30;0.20;;;3.70;99.90;;;;;;5035308;28;20513;-87
2022/02/23 05:32:28;;;;;;;0.30;0.30;;;3.70;99.90;;;;;;5036829;28;20972;-87
2022/02/23 05:34:55;;;;;;;0.30;0.20;;;3.60;99.90;;;;;;5037203;28;20446;-88
2022/02/23 05:37:22;;;;;;;0.30;0.20;;;3.60;99.90;;;;;;5037209;28;20477;-89
2022/02/23 05:39:49;;;;;;;0.30;0.30;;;3.60;99.90;;;;;;5036474;28;20453;-82
2022/02/23 05:42:15;;;;;;;0.30;0.20;;;3.50;99.90;;;;;;5036294;28;20443;-82
2022/02/23 05:44:42;;;;;;;0.30;0.20;;;3.50;99.90;;;;;;5036135;28;20482;-82
2022/02/23 05:47:09;;;;;;;0.30;0.20;;;3.50;99.90;;;;;;5035964;28;20470;-83
2022/02/23 05:49:37;;;;;;;0.30;0.30;;;3.50;99.90;;;;;;5035856;28;20775;-83
2022/02/23 05:52:04;;;;;;;0.30;0.20;;;3.40;99.90;;;;;;5035811;28;20509;-83
2022/02/23 05:54:31;;;;;;;0.30;0.20;;;3.40;99.90;;;;;;5036063;28;20450;-83
2022/02/23 05:56:58;;;;;;;0.30;0.20;;;3.40;99.90;;;;;;5035942;28;20570;-83
2022/02/23 05:59:26;;;;;;;0.40;0.40;;;3.40;99.90;;;;;;5035912;28;20458;-83
2022/02/23 06:01:52;;;;;;;1.50;1.40;;;3.40;99.90;;;;;;5036001;28;20481;-83
2022/02/23 06:04:19;;;;;;;0.47;0.47;;;3.40;99.90;;;;;;5035578;28;21094;-83
2022/02/23 06:06:47;;;;;;;0.30;0.20;;;3.40;99.90;;;;;;5035705;28;20465;-82
2022/02/23 06:09:14;;;;;;;0.30;0.20;;;3.40;99.90;;;;;;5035518;28;20434;-83
2022/02/23 06:11:43;;;;;;;0.30;0.30;;;3.40;99.90;;;;;;5035385;28;20957;-83
2022/02/23 06:14:10;;;;;;;0.30;0.30;;;3.40;99.90;;;;;;5035614;28;20450;-83
2022/02/23 06:16:37;;;;;;;0.30;0.20;;;3.40;99.90;;;;;;5035722;28;20439;-82
2022/02/23 06:19:04;;;;;;;0.30;0.30;;;3.30;99.90;;;;;;5035453;28;20481;-83
2022/02/23 06:21:31;;;;;;;0.30;0.20;;;3.30;99.90;;;;;;5035300;28;20570;-83
2022/02/23 06:23:59;;;;;;;0.30;0.30;;;3.30;99.90;;;;;;5035221;28;20478;-82
2022/02/23 06:26:26;;;;;;;0.30;0.30;;;3.30;99.90;;;;;;5035394;28;20451;-83
2022/02/23 06:28:53;;;;;;;0.33;0.27;;;3.30;99.90;;;;;;5034826;28;20989;-82
2022/02/23 06:31:19;;;;;;;0.30;0.30;;;3.40;99.90;;;;;;5035169;28;20419;-83
2022/02/23 06:33:47;;;;;;;0.50;0.50;;;3.30;99.90;;;;;;5035382;28;20443;-83
2022/02/23 06:36:15;;;;;;;0.30;0.30;;;3.40;99.90;;;;;;5035121;28;20455;-83
2022/02/23 06:38:42;;;;;;;0.30;0.20;;;3.30;99.90;;;;;;5034916;28;20454;-83
2022/02/23 06:41:12;;;;;;;0.40;0.40;;;3.30;99.90;;;;;;5035627;28;20465;-83
2022/02/23 06:43:39;;;;;;;0.30;0.30;;;3.30;99.90;;;;;;5035095;28;20473;-83
2022/02/23 06:46:07;;;;;;;0.30;0.20;;;3.30;99.90;;;;;;5034838;28;20888;-83
2022/02/23 06:48:33;;;;;;;0.30;0.30;;;3.30;99.90;;;;;;5034761;28;20465;-83
2022/02/23 06:51:00;;;;;;;0.30;0.30;;;3.30;99.90;;;;;;5034967;28;20450;-83
2022/02/23 06:53:27;;;;;;;0.30;0.30;;;3.30;99.90;;;;;;5034961;28;20449;-83
2022/02/23 06:55:54;;;;;;;0.30;0.20;;;3.30;99.90;;;;;;5034931;28;20455;-83
2022/02/23 06:58:22;;;;;;;0.50;0.50;;;3.30;99.90;;;;;;5034655;28;20475;-83
2022/02/23 07:00:49;;;;;;;0.40;0.37;;;3.40;99.90;;;;;;5034515;28;20935;-83
2022/02/23 07:03:16;;;;;;;2.53;2.40;;;3.40;99.90;;;;;;5034380;28;20930;-83
2022/02/23 07:05:42;;;;;;;0.30;0.20;;;3.40;99.90;;;;;;5034705;28;20450;-82
2022/02/23 07:08:10;;;;;;;0.30;0.20;;;3.50;99.90;;;;;;5034547;28;20471;-83
2022/02/23 07:10:38;;;;;;;0.30;0.20;;;3.50;99.90;;;;;;5035258;28;20838;-83
2022/02/23 07:13:07;;;;;;;0.30;0.20;;;3.60;99.90;;;;;;5034238;28;20450;-82
2022/02/23 07:15:36;;;;;;;0.30;0.20;;;3.70;99.90;;;;;;5034175;28;20479;-83
2022/02/23 07:18:04;;;;;;;0.30;0.20;;;3.80;99.90;;;;;;5034042;28;20476;-83
2022/02/23 07:20:31;;;;;;;0.30;0.20;;;4.00;99.90;;;;;;5034387;28;20469;-83
2022/02/23 07:22:57;;;;;;;0.30;0.20;;;4.10;99.90;;;;;;5034298;28;20454;-83
2022/02/23 07:25:24;;;;;;;0.60;0.60;;;4.30;99.90;;;;;;5033988;28;20475;-83
2022/02/23 07:27:51;;;;;;;0.30;0.20;;;4.50;99.90;;;;;;5033897;28;20891;-83
2022/02/23 07:30:18;;;;;;;0.30;0.20;;;4.70;99.90;;;;;;5033787;28;20486;-83
2022/02/23 07:32:46;;;;;;;0.30;0.20;;;4.70;99.90;;;;;;5034003;28;20423;-83
2022/02/23 07:35:14;;;;;;;0.60;0.40;;;4.80;99.90;;;;;;5034199;28;20422;-83
2022/02/23 07:37:43;;;;;;;0.30;0.20;;;4.90;99.90;;;;;;5034078;28;20475;-83
2022/02/23 07:40:14;;;;;;;0.30;0.27;;;5.10;99.90;;;;;;5033964;28;20561;-83
2022/02/23 07:42:41;;;;;;;0.30;0.30;;;5.20;99.90;;;;;;5034073;28;20443;-83
2022/02/23 07:45:09;;;;;;;0.30;0.30;;;5.30;99.90;;;;;;5033674;28;20993;-83
2022/02/23 07:47:36;;;;;;;0.30;0.30;;;5.40;99.90;;;;;;5033576;28;20545;-83
2022/02/23 07:50:09;;;;;;;0.30;0.30;;;5.50;99.90;;;;;;5033532;28;20817;-83
2022/02/23 07:52:36;;;;;;;0.30;0.30;;;5.50;99.90;;;;;;5033556;28;20866;-83
2022/02/23 07:55:03;;;;;;;0.30;0.30;;;5.60;99.90;;;;;;5033838;28;20438;-82
2022/02/23 07:57:30;;;;;;;0.50;0.40;;;5.60;99.90;;;;;;5033738;28;20466;-83
2022/02/23 07:59:57;;;;;;;0.30;0.20;;;5.70;99.90;;;;;;5033445;28;20938;-83
2022/02/23 08:02:24;;;;;;;0.30;0.20;;;5.60;99.90;;;;;;5033634;28;20534;-83
2022/02/23 08:04:52;;;;;;;0.30;0.20;;;5.60;99.90;;;;;;5033628;28;20845;-83
2022/02/23 08:07:21;;;;;;;0.30;0.30;;;5.60;99.90;;;;;;5033131;28;20965;-83
2022/02/23 08:09:48;;;;;;;0.30;0.20;;;5.60;99.90;;;;;;5033274;28;20500;-83
2022/02/23 08:12:15;;;;;;;0.30;0.20;;;5.60;99.90;;;;;;5033514;28;20455;-83
2022/02/23 08:14:43;;;;;;;0.40;0.40;;;5.70;99.90;;;;;;5033475;28;20454;-84
2022/02/23 08:19:54;;;;;;;0.30;0.20;;;6.20;99.90;;;;;;5033587;28;20402;-83
2022/02/23 08:22:28;;;;;;;0.30;0.20;;;6.50;99.90;;;;;;5033467;28;20457;-84
2022/02/23 08:24:55;;;;;;;0.30;0.20;;;6.70;99.90;;;;;;5033434;28;20558;-84
2022/02/23 08:27:24;;;;;;;0.30;0.20;;;6.90;99.90;;;;;;5033408;28;20458;-84
2022/02/23 08:29:52;;;;;;;0.30;0.30;;;6.90;99.90;;;;;;5033020;28;20489;-84
2022/02/23 08:32:20;;;;;;;0.30;0.30;;;6.90;99.90;;;;;;5033317;28;20545;-84
2022/02/23 08:34:49;;;;;;;0.50;0.30;;;6.90;99.90;;;;;;5033308;28;20450;-83
2022/02/23 08:37:17;;;;;;;0.30;0.20;;;7.00;99.90;;;;;;5033193;28;20471;-82
2022/02/23 08:39:48;;;;;;;0.30;0.20;;;7.20;99.90;;;;;;5032912;28;20998;-83
2022/02/23 08:42:16;;;;;;;0.30;0.30;;;7.40;99.90;;;;;;5032980;28;20964;-83
2022/02/23 08:44:43;;;;;;;0.30;0.20;;;7.60;99.90;;;;;;5032871;28;20482;-83
2022/02/23 08:47:11;;;;;;;0.30;0.30;;;7.70;99.90;;;;;;5032968;28;20877;-83
2022/02/23 08:49:38;;;;;;;0.30;0.27;;;7.90;99.90;;;;;;5033006;28;20446;-84
2022/02/23 08:52:05;;;;;;;0.60;0.30;;;8.00;99.90;;;;;;5032867;28;20435;-84
2022/02/23 08:54:33;;;;;;;0.30;0.20;;;8.10;99.90;;;;;;5033158;28;20431;-84
2022/02/23 08:57:02;;;;;;;0.30;0.20;;;8.10;99.90;;;;;;5032924;28;20438;-83
2022/02/23 08:59:29;;;;;;;0.30;0.20;;;8.10;99.90;;;;;;5033087;28;20500;-83
2022/02/23 09:01:55;;;;;;;0.30;0.20;;;8.20;99.90;;;;;;5032697;28;20450;-83
2022/02/23 09:04:22;;;;;;;0.40;0.30;;;8.40;99.90;;;;;;5035517;28;20474;-88
2022/02/23 09:06:49;;;;;;;0.40;0.30;;;8.60;99.90;;;;;;5037602;28;20964;-88
2022/02/23 09:09:16;;;;;;;0.50;0.40;;;8.70;99.90;;;;;;5037187;28;20442;-88
2022/02/23 09:11:44;;;;;;;0.30;0.30;;;9.00;99.90;;;;;;5037350;28;20437;-88
2022/02/23 09:14:13;;;;;;;0.30;0.20;;;9.60;99.90;;;;;;5037421;28;20569;-88
2022/02/23 09:16:41;;;;;;;0.40;0.40;;;10.60;99.90;;;;;;5037108;28;20439;-88
2022/02/23 09:19:08;;;;;;;0.30;0.30;;;11.80;99.90;;;;;;5036597;28;20474;-83
2022/02/23 09:21:35;;;;;;;0.30;0.20;;;12.80;99.90;;;;;;5037117;28;20455;-83
2022/02/23 09:24:02;;;;;;;0.40;0.30;;;14.00;99.90;;;;;;5036579;28;20446;-83
2022/02/23 09:26:30;;;;;;;0.30;0.20;;;15.00;99.90;;;;;;5036631;28;20457;-83
2022/02/23 09:28:57;;;;;;;0.77;0.30;;;16.00;99.90;;;;;;5035925;28;20493;-83
2022/02/23 09:31:26;;;;;;;0.30;0.20;;;17.10;99.90;;;;;;5036211;28;20996;-83
2022/02/23 09:33:54;;;;;;;0.30;0.30;;;18.20;99.90;;;;;;5036399;28;20450;-86
2022/02/23 09:36:21;;;;;;;0.40;0.40;;;18.10;96.70;;;;;;5036085;28;20937;-83
2022/02/23 09:38:49;;;;;;;0.40;0.40;;;18.30;95.40;;;;;;5036152;28;20452;-81
2022/02/23 09:41:17;;;;;;;0.30;0.30;;;19.40;92.30;;;;;;5036322;28;20450;-81
2022/02/23 09:43:46;;;;;;;1.60;0.40;;;20.50;87.50;;;;;;5036293;28;20442;-80
2022/02/23 09:46:18;;;;;;;0.40;0.33;;;21.30;81.50;;;;;;5035957;28;20478;-86
2022/02/23 09:48:46;;;;;;;0.40;0.30;;;22.00;79.10;;;;;;5035938;28;20469;-86
2022/02/23 09:51:13;;;;;;;0.40;0.30;;;22.30;76.10;;;;;;5036272;28;20198;-86
2022/02/23 09:53:45;;;;;;;0.60;0.60;;;22.70;70.80;;;;;;5035844;28;20200;-85
2022/02/23 09:56:13;;;;;;;0.30;0.30;;;23.10;72.90;;;;;;5036235;28;20184;-86
2022/02/23 09:58:40;;;;;;;1.58;0.30;;;23.30;67.00;;;;;;5035585;28;20571;-86
2022/02/23 10:01:07;;;;;;;0.30;0.30;;;23.30;62.80;;;;;;5035755;28;20207;-86
2022/02/23 10:03:35;;;;;;;0.30;0.30;;;23.30;60.20;;;;;;5036140;28;20202;-83
2022/02/23 10:06:03;;;;;;;0.30;0.30;;;23.00;62.70;;;;;;5035780;28;20223;-82
2022/02/23 10:08:36;;;;;;;0.55;0.40;;;22.60;62.20;;;;;;5035430;28;20663;-82
2022/02/23 10:11:03;;;;;;;0.30;0.30;;;22.10;63.50;;;;;;5035864;28;20187;-82
2022/02/23 10:13:30;;;;;;;0.87;0.40;;;21.00;60.90;;;;;;5035740;28;20286;-82
2022/02/23 10:15:58;;;;;;;0.30;0.30;;;20.00;65.00;;;;;;5034997;28;20204;-82
2022/02/23 10:18:28;;;;;;;0.30;0.30;;;19.30;68.80;;;;;;5035672;28;20470;-82
2022/02/23 10:20:55;;;;;;;0.30;0.30;;;18.90;68.80;;;;;;5036111;28;20511;-82
2022/02/23 10:23:26;;;;;;;0.63;0.50;;;19.00;70.50;;;;;;5035590;28;20865;-82
2022/02/23 10:25:55;;;;;;;0.50;0.40;;;19.50;66.00;;;;;;5035338;28;20556;-82
2022/02/23 10:28:26;;;;;;;0.30;0.30;;;20.10;65.40;;;;;;5035327;28;20465;-82
2022/02/23 10:30:55;;;;;;;0.40;0.30;;;20.90;63.10;;;;;;5019531;28;20432;-82
2022/02/23 10:33:24;;;;;;;0.33;0.30;;;21.20;58.30;;;;;;5015566;28;20522;-82
2022/02/23 10:35:52;;;;;;;1.13;1.03;;;19.80;60.00;;;;;;5015154;28;20962;-82
2022/02/23 10:38:27;;;;;;;0.30;0.30;;;19.10;62.50;;;;;;5015181;28;20464;-81
2022/02/23 10:40:54;;;;;;;0.30;0.30;;;18.40;63.80;;;;;;5015266;28;20435;-82
2022/02/23 10:43:29;;;;;;;0.47;0.47;;;18.40;65.60;;;;;;5015526;28;20538;-82
2022/02/23 10:46:07;;;;;;;0.40;0.30;;;19.90;69.10;;;;;;5015021;28;20972;-82
2022/02/23 10:48:38;;;;;;;0.30;0.30;;;21.10;61.10;;;;;;5014976;28;20925;-82
2022/02/23 10:51:06;;;;;;;0.33;0.30;;;22.80;57.90;;;;;;5015169;28;20419;-82
2022/02/23 10:53:34;;;;;;;0.63;0.40;;;23.90;55.80;;;;;;5014954;28;20676;-82
2022/02/23 10:56:02;;;;;;;0.30;0.30;;;24.10;51.30;;;;;;5015518;28;20204;-82
2022/02/23 10:58:29;;;;;;;0.40;0.30;;;23.80;53.30;;;;;;5015547;28;20726;-82
2022/02/23 11:01:04;;;;;;;0.30;0.30;;;24.10;53.80;;;;;;5015439;28;20200;-82
2022/02/23 11:03:31;;;;;;;1.85;0.55;;;24.50;52.10;;;;;;5015452;28;20188;-82
2022/02/23 11:05:58;;;;;;;0.32;0.30;;;24.60;52.50;;;;;;5015300;28;20699;-82
2022/02/23 11:08:24;;;;;;;0.40;0.38;;;24.60;53.00;;;;;;5015341;28;20227;-82
2022/02/23 11:10:53;;;;;;;0.38;0.38;;;23.60;52.70;;;;;;5015108;28;20208;-82
2022/02/23 11:13:21;;;;;;;0.60;0.30;;;21.90;55.00;;;;;;5015846;28;20208;-82
2022/02/23 11:15:49;;;;;;;2.58;0.40;;;20.80;58.30;;;;;;5015869;28;20853;-82
2022/02/23 11:18:17;;;;;;;0.30;0.30;;;19.60;59.70;;;;;;5014946;28;20224;-82
2022/02/23 11:20:46;;;;;;;0.93;0.40;;;18.30;61.20;;;;;;5014917;28;20436;-82
2022/02/23 11:23:18;;;;;;;0.30;0.30;;;17.10;65.10;;;;;;5014864;28;20485;-82
2022/02/23 11:25:48;;;;;;;0.40;0.40;;;16.30;66.40;;;;;;5014757;28;20472;-81
2022/02/23 11:28:23;;;;;;;0.40;0.30;;;15.60;69.10;;;;;;5014350;28;20463;-82
2022/02/23 11:30:53;;;;;;;0.40;0.30;;;15.30;70.30;;;;;;5014970;28;20898;-82
2022/02/23 11:33:38;;;;;;;0.40;0.30;;;14.90;70.60;;;;;;5015002;28;20439;-81
2022/02/23 11:36:19;;;;;;;0.33;0.30;;;14.50;70.60;;;;;;5035800;28;20445;-82
2022/02/23 11:38:48;;;;;;;1.13;0.40;;;14.40;71.90;;;;;;5035117;28;20446;-83
2022/02/23 11:41:23;;;;;;;0.40;0.40;;;14.50;73.10;;;;;;5035213;28;20528;-82
2022/02/23 11:43:57;;;;;;;0.30;0.30;;;14.50;75.90;;;;;;5035242;28;20453;-83
2022/02/23 11:46:24;;;;;;;0.50;0.30;;;14.40;76.70;;;;;;5035009;28;20466;-82
2022/02/23 11:48:56;;;;;;;0.30;0.23;;;14.20;75.00;;;;;;5035189;28;20489;-82
2022/02/23 11:51:25;;;;;;;0.40;0.30;;;13.90;77.90;;;;;;5035030;28;20443;-81
2022/02/23 11:53:52;;;;;;;1.17;1.17;;;13.70;77.40;;;;;;5034014;28;20453;-82
2022/02/23 11:56:20;;;;;;;0.40;0.30;;;13.70;78.50;;;;;;5034704;28;20997;-82
2022/02/23 11:58:48;;;;;;;0.80;0.50;;;13.60;78.10;;;;;;5035752;28;21047;-82
2022/02/23 12:01:17;;;;;;;0.73;0.30;;;13.60;80.60;;;;;;5035183;28;20820;-82
2022/02/23 12:04:07;;;;;;;0.40;0.30;;;13.60;82.00;;;;;;5035868;28;20457;-82
2022/02/23 12:07:10;;;;;;;3.50;0.40;;;13.40;79.40;;;;;;5036574;28;20470;-82
2022/02/23 12:10:10;;;;;;;0.40;0.37;;;13.20;79.70;;;;;;5036306;28;20941;-82
2022/02/23 12:12:40;;;;;;;0.30;0.30;;;13.10;81.00;;;;;;5021225;28;20458;-82
2022/02/23 12:15:09;;;;;;;0.40;0.30;;;13.00;78.00;;;;;;5035119;28;20430;-82
2022/02/23 12:17:58;;;;;;;0.40;0.30;;;12.80;78.50;;;;;;5035025;28;20474;-82
2022/02/23 12:20:51;;;;;;;0.40;0.30;;;12.70;80.10;;;;;;5035033;28;20439;-82
2022/02/23 12:23:37;;;;;;;0.60;0.50;;;12.50;81.30;;;;;;5034991;28;20919;-82
2022/02/23 12:26:17;;;;;;;0.30;0.30;;;12.10;80.20;;;;;;5035088;28;20462;-82
2022/02/23 12:28:47;;;;;;;0.30;0.30;;;11.90;82.00;;;;;;5034778;28;20479;-82
2022/02/23 12:31:18;;;;;;;0.40;0.30;;;11.70;82.60;;;;;;5034531;28;21022;-82
2022/02/23 12:33:48;;;;;;;0.30;0.20;;;11.80;83.30;;;;;;5035185;28;20965;-82
2022/02/23 12:36:24;;;;;;;0.40;0.30;;;11.60;82.40;;;;;;5035060;28;20431;-82
2022/02/23 12:38:51;;;;;;;0.30;0.20;;;11.60;83.90;;;;;;5038809;28;20446;-82
2022/02/23 12:41:21;;;;;;;0.30;0.30;;;11.50;84.50;;;;;;5041004;28;20434;-82
2022/02/23 12:44:00;;;;;;;0.40;0.30;;;11.60;85.20;;;;;;5041175;28;20434;-82
2022/02/23 12:46:28;;;;;;;0.30;0.30;;;11.60;85.20;;;;;;5042059;28;20473;-82
2022/02/23 12:48:57;;;;;;;0.30;0.30;;;11.60;84.90;;;;;;5041901;28;20469;-82
2022/02/23 12:51:29;;;;;;;0.40;0.30;;;11.50;84.90;;;;;;5041950;28;20771;-82
2022/02/23 12:53:58;;;;;;;0.30;0.30;;;11.40;85.80;;;;;;5041843;28;20470;-82
2022/02/23 12:56:27;;;;;;;0.30;0.20;;;11.30;85.30;;;;;;5041419;28;20435;-82
2022/02/23 12:58:58;;;;;;;0.30;0.30;;;11.30;84.10;;;;;;5041673;28;20462;-82
2022/02/23 13:01:26;;;;;;;0.30;0.20;;;11.10;86.70;;;;;;5041121;28;20437;-82